sensor_id;sensor_type;location;lat;lon;timestamp;P1;durP1;ratioP1;P2;durP2;ratioP2
16282;SDS011;8249;48.708;9.030;2023-07-24T00:02:25;1999.90;;;999.90;;
16282;SDS011;8249;48.708;9.030;2023-07-24T00:04:52;1999.90;;;999.90;;
16282;SDS011;8249;48.708;9.030;2023-07-24T00:07:20;1999.90;;;999.90;;
16282;SDS011;8249;48.708;9.030;2023-07-24T00:09:46;1999.90;;;999.90;;
16282;SDS011;8249;48.708;9.030;2023-07-24T00:12:14;1999.90;;;999.90;;
16282;SDS011;8249;48.708;9.030;2023-07-24T00:14:40;1999.90;;;999.90;;
16282;SDS011;8249;48.708;9.030;2023-07-24T00:17:07;1999.90;;;999.90;;
16282;SDS011;8249;48.708;9.030;2023-07-24T00:19:36;1999.90;;;999.90;;
16282;SDS011;8249;48.708;9.030;2023-07-24T00:22:02;1999.90;;;999.90;;
16282;SDS011;8249;48.708;9.030;2023-07-24T00:24:30;1999.90;;;999.90;;
16282;SDS011;8249;48.708;9.030;2023-07-24T00:26:58;1999.90;;;999.90;;
16282;SDS011;8249;48.708;9.030;2023-07-24T00:29:24;1999.90;;;999.90;;
16282;SDS011;8249;48.708;9.030;2023-07-24T00:31:51;1999.90;;;999.90;;
16282;SDS011;8249;48.708;9.030;2023-07-24T00:34:18;1999.90;;;999.90;;
16282;SDS011;8249;48.708;9.030;2023-07-24T00:36:46;1999.90;;;999.90;;
16282;SDS011;8249;48.708;9.030;2023-07-24T00:39:13;1999.90;;;999.90;;
16282;SDS011;8249;48.708;9.030;2023-07-24T00:41:41;1999.90;;;999.90;;
16282;SDS011;8249;48.708;9.030;2023-07-24T00:44:08;1999.90;;;999.90;;
16282;SDS011;8249;48.708;9.030;2023-07-24T00:46:35;1999.90;;;999.90;;
16282;SDS011;8249;48.708;9.030;2023-07-24T00:49:02;1999.90;;;999.90;;
16282;SDS011;8249;48.708;9.030;2023-07-24T00:51:31;1999.90;;;999.90;;
16282;SDS011;8249;48.708;9.030;2023-07-24T00:54:00;1999.90;;;999.90;;
16282;SDS011;8249;48.708;9.030;2023-07-24T00:56:29;1999.90;;;999.90;;
16282;SDS011;8249;48.708;9.030;2023-07-24T00:58:57;1999.90;;;999.90;;
16282;SDS011;8249;48.708;9.030;2023-07-24T01:01:24;1999.90;;;999.90;;
16282;SDS011;8249;48.708;9.030;2023-07-24T01:03:52;1999.90;;;999.90;;
16282;SDS011;8249;48.708;9.030;2023-07-24T01:06:19;1999.90;;;999.90;;
16282;SDS011;8249;48.708;9.030;2023-07-24T01:08:46;1999.90;;;999.90;;
16282;SDS011;8249;48.708;9.030;2023-07-24T01:11:15;1999.90;;;999.90;;
16282;SDS011;8249;48.708;9.030;2023-07-24T01:13:47;1999.90;;;999.90;;
16282;SDS011;8249;48.708;9.030;2023-07-24T01:16:23;1999.90;;;999.90;;
16282;SDS011;8249;48.708;9.030;2023-07-24T01:18:56;1999.90;;;999.90;;
16282;SDS011;8249;48.708;9.030;2023-07-24T01:21:26;1999.90;;;999.90;;
16282;SDS011;8249;48.708;9.030;2023-07-24T01:24:03;1999.90;;;999.90;;
16282;SDS011;8249;48.708;9.030;2023-07-24T01:26:42;1999.90;;;999.90;;
16282;SDS011;8249;48.708;9.030;2023-07-24T01:29:09;1999.90;;;999.90;;
16282;SDS011;8249;48.708;9.030;2023-07-24T01:31:36;1999.90;;;999.90;;
16282;SDS011;8249;48.708;9.030;2023-07-24T01:34:04;1999.90;;;999.90;;
16282;SDS011;8249;48.708;9.030;2023-07-24T01:36:31;1999.90;;;999.90;;
16282;SDS011;8249;48.708;9.030;2023-07-24T01:38:58;1999.90;;;999.90;;
16282;SDS011;8249;48.708;9.030;2023-07-24T01:41:26;1999.90;;;999.90;;
16282;SDS011;8249;48.708;9.030;2023-07-24T01:43:54;1999.90;;;999.90;;
16282;SDS011;8249;48.708;9.030;2023-07-24T01:46:21;1999.90;;;999.90;;
16282;SDS011;8249;48.708;9.030;2023-07-24T01:48:48;1999.90;;;999.90;;
16282;SDS011;8249;48.708;9.030;2023-07-24T01:51:15;1999.90;;;999.90;;
16282;SDS011;8249;48.708;9.030;2023-07-24T01:53:42;1999.90;;;999.90;;
16282;SDS011;8249;48.708;9.030;2023-07-24T01:56:09;1999.90;;;999.90;;
16282;SDS011;8249;48.708;9.030;2023-07-24T01:58:36;1999.90;;;999.90;;
16282;SDS011;8249;48.708;9.030;2023-07-24T02:01:04;1999.90;;;999.90;;
16282;SDS011;8249;48.708;9.030;2023-07-24T02:03:31;1999.90;;;999.90;;
16282;SDS011;8249;48.708;9.030;2023-07-24T02:05:58;1999.90;;;999.90;;
16282;SDS011;8249;48.708;9.030;2023-07-24T02:08:25;1999.90;;;999.90;;
16282;SDS011;8249;48.708;9.030;2023-07-24T02:10:52;1999.90;;;999.90;;
16282;SDS011;8249;48.708;9.030;2023-07-24T02:13:19;1999.90;;;999.90;;
16282;SDS011;8249;48.708;9.030;2023-07-24T02:15:49;1999.90;;;999.90;;
16282;SDS011;8249;48.708;9.030;2023-07-24T02:18:18;1999.90;;;999.90;;
16282;SDS011;8249;48.708;9.030;2023-07-24T02:20:48;1999.90;;;999.90;;
16282;SDS011;8249;48.708;9.030;2023-07-24T02:23:16;1999.90;;;999.90;;
16282;SDS011;8249;48.708;9.030;2023-07-24T02:25:43;1999.90;;;999.90;;
16282;SDS011;8249;48.708;9.030;2023-07-24T02:28:10;1999.90;;;999.90;;
16282;SDS011;8249;48.708;9.030;2023-07-24T02:30:37;1999.90;;;999.90;;
16282;SDS011;8249;48.708;9.030;2023-07-24T02:33:05;1999.90;;;999.90;;
16282;SDS011;8249;48.708;9.030;2023-07-24T02:35:39;1999.90;;;999.90;;
16282;SDS011;8249;48.708;9.030;2023-07-24T02:38:06;1999.90;;;999.90;;
16282;SDS011;8249;48.708;9.030;2023-07-24T02:40:33;1999.90;;;999.90;;
16282;SDS011;8249;48.708;9.030;2023-07-24T02:43:01;1999.90;;;999.90;;
16282;SDS011;8249;48.708;9.030;2023-07-24T02:45:28;1999.90;;;999.90;;
16282;SDS011;8249;48.708;9.030;2023-07-24T02:47:56;1999.90;;;999.90;;
16282;SDS011;8249;48.708;9.030;2023-07-24T02:50:23;1999.90;;;999.90;;
16282;SDS011;8249;48.708;9.030;2023-07-24T02:52:51;1999.90;;;999.90;;
16282;SDS011;8249;48.708;9.030;2023-07-24T02:55:18;1999.90;;;999.90;;
16282;SDS011;8249;48.708;9.030;2023-07-24T02:57:45;1999.90;;;999.90;;
16282;SDS011;8249;48.708;9.030;2023-07-24T03:00:12;1999.90;;;999.90;;
16282;SDS011;8249;48.708;9.030;2023-07-24T03:02:39;1999.90;;;999.90;;
16282;SDS011;8249;48.708;9.030;2023-07-24T03:05:06;1999.90;;;999.90;;
16282;SDS011;8249;48.708;9.030;2023-07-24T03:07:34;577.50;;;384.93;;
16282;SDS011;8249;48.708;9.030;2023-07-24T03:10:02;1569.73;;;830.87;;
16282;SDS011;8249;48.708;9.030;2023-07-24T03:12:30;1999.90;;;999.90;;
16282;SDS011;8249;48.708;9.030;2023-07-24T03:14:56;1999.90;;;999.90;;
16282;SDS011;8249;48.708;9.030;2023-07-24T03:17:24;1999.90;;;999.90;;
16282;SDS011;8249;48.708;9.030;2023-07-24T03:19:51;1999.90;;;999.90;;
16282;SDS011;8249;48.708;9.030;2023-07-24T03:22:18;1999.90;;;999.90;;
16282;SDS011;8249;48.708;9.030;2023-07-24T03:24:45;1999.90;;;999.90;;
16282;SDS011;8249;48.708;9.030;2023-07-24T03:27:14;1999.90;;;999.90;;
16282;SDS011;8249;48.708;9.030;2023-07-24T03:29:41;1999.90;;;999.90;;
16282;SDS011;8249;48.708;9.030;2023-07-24T03:32:08;1999.90;;;999.90;;
16282;SDS011;8249;48.708;9.030;2023-07-24T03:34:35;1999.90;;;999.90;;
16282;SDS011;8249;48.708;9.030;2023-07-24T03:37:02;1999.90;;;999.90;;
16282;SDS011;8249;48.708;9.030;2023-07-24T03:39:29;1999.90;;;999.90;;
16282;SDS011;8249;48.708;9.030;2023-07-24T03:41:56;1999.90;;;999.90;;
16282;SDS011;8249;48.708;9.030;2023-07-24T03:44:25;1999.90;;;999.90;;
16282;SDS011;8249;48.708;9.030;2023-07-24T03:46:52;1999.90;;;999.90;;
16282;SDS011;8249;48.708;9.030;2023-07-24T03:49:18;1999.90;;;999.90;;
16282;SDS011;8249;48.708;9.030;2023-07-24T03:51:45;1999.90;;;999.90;;
16282;SDS011;8249;48.708;9.030;2023-07-24T03:54:12;1999.90;;;999.90;;
16282;SDS011;8249;48.708;9.030;2023-07-24T03:56:39;1999.90;;;999.90;;
16282;SDS011;8249;48.708;9.030;2023-07-24T03:59:06;1999.90;;;999.90;;
16282;SDS011;8249;48.708;9.030;2023-07-24T04:01:34;1999.90;;;999.90;;
16282;SDS011;8249;48.708;9.030;2023-07-24T04:04:01;1999.90;;;999.90;;
16282;SDS011;8249;48.708;9.030;2023-07-24T04:06:28;1999.90;;;999.90;;
16282;SDS011;8249;48.708;9.030;2023-07-24T04:08:55;1999.90;;;999.90;;
16282;SDS011;8249;48.708;9.030;2023-07-24T04:11:22;1999.90;;;999.90;;
16282;SDS011;8249;48.708;9.030;2023-07-24T04:13:49;1999.90;;;999.90;;
16282;SDS011;8249;48.708;9.030;2023-07-24T04:16:16;1999.90;;;999.90;;
16282;SDS011;8249;48.708;9.030;2023-07-24T04:18:44;1999.90;;;999.90;;
16282;SDS011;8249;48.708;9.030;2023-07-24T04:21:11;1999.90;;;999.90;;
16282;SDS011;8249;48.708;9.030;2023-07-24T04:23:38;1999.90;;;999.90;;
16282;SDS011;8249;48.708;9.030;2023-07-24T04:26:05;1999.90;;;999.90;;
16282;SDS011;8249;48.708;9.030;2023-07-24T04:28:32;1999.90;;;999.90;;
16282;SDS011;8249;48.708;9.030;2023-07-24T04:30:59;1999.90;;;999.90;;
16282;SDS011;8249;48.708;9.030;2023-07-24T04:33:26;1999.90;;;999.90;;
16282;SDS011;8249;48.708;9.030;2023-07-24T04:35:55;1999.90;;;999.90;;
16282;SDS011;8249;48.708;9.030;2023-07-24T04:38:22;1999.90;;;999.90;;
16282;SDS011;8249;48.708;9.030;2023-07-24T04:40:49;1999.90;;;999.90;;
16282;SDS011;8249;48.708;9.030;2023-07-24T04:43:16;1999.90;;;999.90;;
16282;SDS011;8249;48.708;9.030;2023-07-24T04:45:43;1999.90;;;999.90;;
16282;SDS011;8249;48.708;9.030;2023-07-24T04:48:11;1999.90;;;999.90;;
16282;SDS011;8249;48.708;9.030;2023-07-24T04:50:38;1999.90;;;999.90;;
16282;SDS011;8249;48.708;9.030;2023-07-24T04:53:06;1999.90;;;999.90;;
16282;SDS011;8249;48.708;9.030;2023-07-24T04:55:34;1999.90;;;999.90;;
16282;SDS011;8249;48.708;9.030;2023-07-24T04:58:01;1999.90;;;999.90;;
16282;SDS011;8249;48.708;9.030;2023-07-24T05:00:28;1999.90;;;999.90;;
16282;SDS011;8249;48.708;9.030;2023-07-24T05:02:55;1999.90;;;999.90;;
16282;SDS011;8249;48.708;9.030;2023-07-24T05:05:22;1999.90;;;999.90;;
16282;SDS011;8249;48.708;9.030;2023-07-24T05:07:49;1999.90;;;999.90;;
16282;SDS011;8249;48.708;9.030;2023-07-24T05:10:18;1999.90;;;999.90;;
16282;SDS011;8249;48.708;9.030;2023-07-24T05:12:44;1999.90;;;999.90;;
16282;SDS011;8249;48.708;9.030;2023-07-24T05:15:12;1999.90;;;999.90;;
16282;SDS011;8249;48.708;9.030;2023-07-24T05:17:42;1999.90;;;999.90;;
16282;SDS011;8249;48.708;9.030;2023-07-24T05:20:09;1999.90;;;999.90;;
16282;SDS011;8249;48.708;9.030;2023-07-24T05:22:37;1999.90;;;999.90;;
16282;SDS011;8249;48.708;9.030;2023-07-24T05:25:04;1999.90;;;999.90;;
16282;SDS011;8249;48.708;9.030;2023-07-24T05:27:33;1999.90;;;999.90;;
16282;SDS011;8249;48.708;9.030;2023-07-24T05:30:01;1999.90;;;999.90;;
16282;SDS011;8249;48.708;9.030;2023-07-24T05:32:28;1999.90;;;999.90;;
16282;SDS011;8249;48.708;9.030;2023-07-24T05:34:56;1999.90;;;999.90;;
16282;SDS011;8249;48.708;9.030;2023-07-24T05:37:23;1999.90;;;999.90;;
16282;SDS011;8249;48.708;9.030;2023-07-24T05:39:50;1999.90;;;999.90;;
16282;SDS011;8249;48.708;9.030;2023-07-24T05:42:17;1999.90;;;999.90;;
16282;SDS011;8249;48.708;9.030;2023-07-24T05:44:45;1999.90;;;999.90;;
16282;SDS011;8249;48.708;9.030;2023-07-24T05:47:13;1999.90;;;999.90;;
16282;SDS011;8249;48.708;9.030;2023-07-24T05:49:40;1999.90;;;999.90;;
16282;SDS011;8249;48.708;9.030;2023-07-24T05:52:07;1999.90;;;999.90;;
16282;SDS011;8249;48.708;9.030;2023-07-24T05:54:34;1999.90;;;999.90;;
16282;SDS011;8249;48.708;9.030;2023-07-24T05:57:01;1999.90;;;999.90;;
16282;SDS011;8249;48.708;9.030;2023-07-24T05:59:28;1999.90;;;999.90;;
16282;SDS011;8249;48.708;9.030;2023-07-24T06:01:56;1999.90;;;999.90;;
16282;SDS011;8249;48.708;9.030;2023-07-24T06:04:23;1999.90;;;999.90;;
16282;SDS011;8249;48.708;9.030;2023-07-24T06:06:50;1999.90;;;999.90;;
16282;SDS011;8249;48.708;9.030;2023-07-24T06:09:17;1999.90;;;999.90;;
16282;SDS011;8249;48.708;9.030;2023-07-24T06:11:43;1999.90;;;999.90;;
16282;SDS011;8249;48.708;9.030;2023-07-24T06:14:10;1999.90;;;999.90;;
16282;SDS011;8249;48.708;9.030;2023-07-24T06:16:37;1999.90;;;999.90;;
16282;SDS011;8249;48.708;9.030;2023-07-24T06:19:06;1999.90;;;999.90;;
16282;SDS011;8249;48.708;9.030;2023-07-24T06:21:33;1999.90;;;999.90;;
16282;SDS011;8249;48.708;9.030;2023-07-24T06:23:59;1999.90;;;999.90;;
16282;SDS011;8249;48.708;9.030;2023-07-24T06:26:26;1999.90;;;999.90;;
16282;SDS011;8249;48.708;9.030;2023-07-24T06:28:54;1999.90;;;999.90;;
16282;SDS011;8249;48.708;9.030;2023-07-24T06:31:21;1999.90;;;999.90;;
16282;SDS011;8249;48.708;9.030;2023-07-24T06:33:47;1999.90;;;999.90;;
16282;SDS011;8249;48.708;9.030;2023-07-24T06:36:16;1999.90;;;999.90;;
16282;SDS011;8249;48.708;9.030;2023-07-24T06:38:43;1999.90;;;999.90;;
16282;SDS011;8249;48.708;9.030;2023-07-24T06:41:12;1999.90;;;999.90;;
16282;SDS011;8249;48.708;9.030;2023-07-24T06:43:38;1999.90;;;999.90;;
16282;SDS011;8249;48.708;9.030;2023-07-24T06:46:05;1999.90;;;999.90;;
16282;SDS011;8249;48.708;9.030;2023-07-24T06:48:32;1999.90;;;999.90;;
16282;SDS011;8249;48.708;9.030;2023-07-24T06:50:59;1999.90;;;999.90;;
16282;SDS011;8249;48.708;9.030;2023-07-24T06:53:27;1999.90;;;999.90;;
16282;SDS011;8249;48.708;9.030;2023-07-24T06:55:54;1999.90;;;999.90;;
16282;SDS011;8249;48.708;9.030;2023-07-24T06:58:21;1999.90;;;999.90;;
16282;SDS011;8249;48.708;9.030;2023-07-24T07:00:48;1999.90;;;999.90;;
16282;SDS011;8249;48.708;9.030;2023-07-24T07:03:15;1999.90;;;999.90;;
16282;SDS011;8249;48.708;9.030;2023-07-24T07:05:42;1999.90;;;999.90;;
16282;SDS011;8249;48.708;9.030;2023-07-24T07:08:09;1999.90;;;999.90;;
16282;SDS011;8249;48.708;9.030;2023-07-24T07:10:37;1999.90;;;999.90;;
16282;SDS011;8249;48.708;9.030;2023-07-24T07:13:04;1999.90;;;999.90;;
16282;SDS011;8249;48.708;9.030;2023-07-24T07:15:31;1999.90;;;999.90;;
16282;SDS011;8249;48.708;9.030;2023-07-24T07:17:58;1999.90;;;999.90;;
16282;SDS011;8249;48.708;9.030;2023-07-24T07:20:25;1999.90;;;999.90;;
16282;SDS011;8249;48.708;9.030;2023-07-24T07:22:52;1999.90;;;999.90;;
16282;SDS011;8249;48.708;9.030;2023-07-24T07:25:19;1999.90;;;999.90;;
16282;SDS011;8249;48.708;9.030;2023-07-24T07:27:47;1999.90;;;999.90;;
16282;SDS011;8249;48.708;9.030;2023-07-24T07:30:14;1999.90;;;999.90;;
16282;SDS011;8249;48.708;9.030;2023-07-24T07:32:41;1999.90;;;999.90;;
16282;SDS011;8249;48.708;9.030;2023-07-24T07:35:08;1999.90;;;999.90;;
16282;SDS011;8249;48.708;9.030;2023-07-24T07:37:35;1999.90;;;999.90;;
16282;SDS011;8249;48.708;9.030;2023-07-24T07:40:02;1999.90;;;999.90;;
16282;SDS011;8249;48.708;9.030;2023-07-24T07:42:30;1999.90;;;999.90;;
16282;SDS011;8249;48.708;9.030;2023-07-24T07:44:58;1999.90;;;999.90;;
16282;SDS011;8249;48.708;9.030;2023-07-24T07:47:25;1999.90;;;999.90;;
16282;SDS011;8249;48.708;9.030;2023-07-24T07:49:52;1999.90;;;999.90;;
16282;SDS011;8249;48.708;9.030;2023-07-24T07:52:19;1999.90;;;999.90;;
16282;SDS011;8249;48.708;9.030;2023-07-24T07:54:47;1999.90;;;999.90;;
16282;SDS011;8249;48.708;9.030;2023-07-24T07:57:14;1999.90;;;999.90;;
16282;SDS011;8249;48.708;9.030;2023-07-24T07:59:41;1999.90;;;999.90;;
16282;SDS011;8249;48.708;9.030;2023-07-24T08:02:09;1999.90;;;999.90;;
16282;SDS011;8249;48.708;9.030;2023-07-24T08:04:36;1999.90;;;999.90;;
16282;SDS011;8249;48.708;9.030;2023-07-24T08:07:03;1999.90;;;999.90;;
16282;SDS011;8249;48.708;9.030;2023-07-24T08:09:30;1999.90;;;999.90;;
16282;SDS011;8249;48.708;9.030;2023-07-24T08:11:58;1999.90;;;999.90;;
16282;SDS011;8249;48.708;9.030;2023-07-24T08:14:25;1999.90;;;999.90;;
16282;SDS011;8249;48.708;9.030;2023-07-24T08:16:52;1999.90;;;999.90;;
16282;SDS011;8249;48.708;9.030;2023-07-24T08:19:20;1999.90;;;999.90;;
16282;SDS011;8249;48.708;9.030;2023-07-24T08:21:47;1999.90;;;999.90;;
16282;SDS011;8249;48.708;9.030;2023-07-24T08:24:14;1999.90;;;999.90;;
16282;SDS011;8249;48.708;9.030;2023-07-24T08:26:41;1999.90;;;999.90;;
16282;SDS011;8249;48.708;9.030;2023-07-24T08:29:08;1999.90;;;999.90;;
16282;SDS011;8249;48.708;9.030;2023-07-24T08:31:35;1999.90;;;999.90;;
16282;SDS011;8249;48.708;9.030;2023-07-24T08:34:02;1999.90;;;999.90;;
16282;SDS011;8249;48.708;9.030;2023-07-24T08:36:30;1999.90;;;999.90;;
16282;SDS011;8249;48.708;9.030;2023-07-24T08:38:57;1999.90;;;999.90;;
16282;SDS011;8249;48.708;9.030;2023-07-24T08:41:24;1999.90;;;999.90;;
16282;SDS011;8249;48.708;9.030;2023-07-24T08:43:51;1999.90;;;999.90;;
16282;SDS011;8249;48.708;9.030;2023-07-24T08:46:19;1999.90;;;999.90;;
16282;SDS011;8249;48.708;9.030;2023-07-24T08:48:46;1999.90;;;999.90;;
16282;SDS011;8249;48.708;9.030;2023-07-24T08:51:14;1999.90;;;999.90;;
16282;SDS011;8249;48.708;9.030;2023-07-24T08:53:45;1999.90;;;999.90;;
16282;SDS011;8249;48.708;9.030;2023-07-24T08:56:13;1999.90;;;999.90;;
16282;SDS011;8249;48.708;9.030;2023-07-24T08:58:40;1999.90;;;999.90;;
16282;SDS011;8249;48.708;9.030;2023-07-24T09:01:08;1999.90;;;999.90;;
16282;SDS011;8249;48.708;9.030;2023-07-24T09:03:35;1999.90;;;999.90;;
16282;SDS011;8249;48.708;9.030;2023-07-24T09:06:02;1999.90;;;999.90;;
16282;SDS011;8249;48.708;9.030;2023-07-24T09:08:32;1999.90;;;999.90;;
16282;SDS011;8249;48.708;9.030;2023-07-24T09:11:01;1999.90;;;999.90;;
16282;SDS011;8249;48.708;9.030;2023-07-24T09:13:29;1999.90;;;999.90;;
16282;SDS011;8249;48.708;9.030;2023-07-24T09:15:57;1999.90;;;999.90;;
16282;SDS011;8249;48.708;9.030;2023-07-24T09:18:25;1999.90;;;999.90;;
16282;SDS011;8249;48.708;9.030;2023-07-24T09:20:52;1999.90;;;999.90;;
16282;SDS011;8249;48.708;9.030;2023-07-24T09:23:25;1999.90;;;999.90;;
16282;SDS011;8249;48.708;9.030;2023-07-24T09:25:54;1999.90;;;999.90;;
16282;SDS011;8249;48.708;9.030;2023-07-24T09:28:22;1999.90;;;999.90;;
16282;SDS011;8249;48.708;9.030;2023-07-24T09:30:53;1999.90;;;999.90;;
16282;SDS011;8249;48.708;9.030;2023-07-24T09:33:20;1999.90;;;999.90;;
16282;SDS011;8249;48.708;9.030;2023-07-24T09:35:56;1999.90;;;999.90;;
16282;SDS011;8249;48.708;9.030;2023-07-24T09:38:24;1999.90;;;999.90;;
16282;SDS011;8249;48.708;9.030;2023-07-24T09:40:52;1999.90;;;999.90;;
16282;SDS011;8249;48.708;9.030;2023-07-24T09:43:21;1999.90;;;999.90;;
16282;SDS011;8249;48.708;9.030;2023-07-24T09:45:51;1999.90;;;999.90;;
16282;SDS011;8249;48.708;9.030;2023-07-24T09:48:19;1999.90;;;999.90;;
16282;SDS011;8249;48.708;9.030;2023-07-24T09:50:47;1999.90;;;999.90;;
16282;SDS011;8249;48.708;9.030;2023-07-24T09:53:17;1999.90;;;999.90;;
16282;SDS011;8249;48.708;9.030;2023-07-24T09:55:49;1999.90;;;999.90;;
16282;SDS011;8249;48.708;9.030;2023-07-24T09:58:23;1999.90;;;999.90;;
16282;SDS011;8249;48.708;9.030;2023-07-24T10:00:51;1999.90;;;999.90;;
16282;SDS011;8249;48.708;9.030;2023-07-24T10:03:19;1999.90;;;999.90;;
16282;SDS011;8249;48.708;9.030;2023-07-24T10:05:48;1999.90;;;999.90;;
16282;SDS011;8249;48.708;9.030;2023-07-24T10:08:16;1999.90;;;999.90;;
16282;SDS011;8249;48.708;9.030;2023-07-24T10:10:44;1999.90;;;999.90;;
16282;SDS011;8249;48.708;9.030;2023-07-24T10:13:12;1999.90;;;999.90;;
16282;SDS011;8249;48.708;9.030;2023-07-24T10:15:41;1999.90;;;999.90;;
16282;SDS011;8249;48.708;9.030;2023-07-24T10:18:09;1999.90;;;999.90;;
16282;SDS011;8249;48.708;9.030;2023-07-24T10:20:37;1999.90;;;999.90;;
16282;SDS011;8249;48.708;9.030;2023-07-24T10:23:06;1999.90;;;999.90;;
16282;SDS011;8249;48.708;9.030;2023-07-24T10:25:35;1999.90;;;999.90;;
16282;SDS011;8249;48.708;9.030;2023-07-24T10:28:06;1999.90;;;999.90;;
16282;SDS011;8249;48.708;9.030;2023-07-24T10:30:35;1999.90;;;999.90;;
16282;SDS011;8249;48.708;9.030;2023-07-24T10:33:05;1999.90;;;999.90;;
16282;SDS011;8249;48.708;9.030;2023-07-24T10:35:39;1999.90;;;999.90;;
16282;SDS011;8249;48.708;9.030;2023-07-24T10:38:07;1999.90;;;999.90;;
16282;SDS011;8249;48.708;9.030;2023-07-24T10:40:34;1160.03;;;524.13;;
16282;SDS011;8249;48.708;9.030;2023-07-24T10:43:04;1173.17;;;832.27;;
16282;SDS011;8249;48.708;9.030;2023-07-24T10:45:38;871.80;;;573.97;;
16282;SDS011;8249;48.708;9.030;2023-07-24T10:48:10;1999.90;;;999.90;;
16282;SDS011;8249;48.708;9.030;2023-07-24T10:50:41;1353.60;;;858.93;;
16282;SDS011;8249;48.708;9.030;2023-07-24T10:53:08;1466.10;;;887.37;;
16282;SDS011;8249;48.708;9.030;2023-07-24T10:55:36;1355.80;;;884.63;;
16282;SDS011;8249;48.708;9.030;2023-07-24T10:58:03;1423.53;;;899.97;;
16282;SDS011;8249;48.708;9.030;2023-07-24T11:00:31;1374.97;;;894.73;;
16282;SDS011;8249;48.708;9.030;2023-07-24T11:02:58;1303.73;;;854.30;;
16282;SDS011;8249;48.708;9.030;2023-07-24T11:05:26;1491.23;;;957.73;;
16282;SDS011;8249;48.708;9.030;2023-07-24T11:07:54;1192.57;;;915.63;;
16282;SDS011;8249;48.708;9.030;2023-07-24T11:10:21;1451.70;;;783.00;;
16282;SDS011;8249;48.708;9.030;2023-07-24T11:12:49;1176.90;;;820.20;;
16282;SDS011;8249;48.708;9.030;2023-07-24T11:15:22;1447.83;;;675.17;;
16282;SDS011;8249;48.708;9.030;2023-07-24T11:17:50;1309.47;;;566.30;;
16282;SDS011;8249;48.708;9.030;2023-07-24T11:20:17;1890.10;;;908.97;;
16282;SDS011;8249;48.708;9.030;2023-07-24T11:22:46;1999.90;;;999.90;;
16282;SDS011;8249;48.708;9.030;2023-07-24T11:25:13;1999.90;;;999.90;;
16282;SDS011;8249;48.708;9.030;2023-07-24T11:27:41;1999.90;;;999.90;;
16282;SDS011;8249;48.708;9.030;2023-07-24T11:30:09;1999.90;;;999.90;;
16282;SDS011;8249;48.708;9.030;2023-07-24T11:32:38;1999.90;;;999.90;;
16282;SDS011;8249;48.708;9.030;2023-07-24T11:35:06;1999.90;;;999.90;;
16282;SDS011;8249;48.708;9.030;2023-07-24T11:37:34;1999.90;;;999.90;;
16282;SDS011;8249;48.708;9.030;2023-07-24T11:40:03;1999.90;;;999.90;;
16282;SDS011;8249;48.708;9.030;2023-07-24T11:42:36;1999.90;;;999.90;;
16282;SDS011;8249;48.708;9.030;2023-07-24T11:45:04;1999.90;;;999.90;;
16282;SDS011;8249;48.708;9.030;2023-07-24T11:47:40;1999.90;;;999.90;;
16282;SDS011;8249;48.708;9.030;2023-07-24T11:50:08;1999.90;;;999.90;;
16282;SDS011;8249;48.708;9.030;2023-07-24T11:52:39;1999.90;;;999.90;;
16282;SDS011;8249;48.708;9.030;2023-07-24T12:05:38;1999.90;;;999.90;;
16282;SDS011;8249;48.708;9.030;2023-07-24T12:08:06;1999.90;;;999.90;;
16282;SDS011;8249;48.708;9.030;2023-07-24T12:10:35;1999.90;;;999.90;;
16282;SDS011;8249;48.708;9.030;2023-07-24T12:13:03;1999.90;;;999.90;;
16282;SDS011;8249;48.708;9.030;2023-07-24T12:15:30;1999.90;;;999.90;;
16282;SDS011;8249;48.708;9.030;2023-07-24T12:17:58;1999.90;;;999.90;;
16282;SDS011;8249;48.708;9.030;2023-07-24T12:20:26;1999.90;;;999.90;;
16282;SDS011;8249;48.708;9.030;2023-07-24T12:22:55;1999.90;;;999.90;;
16282;SDS011;8249;48.708;9.030;2023-07-24T12:25:22;1999.90;;;999.90;;
16282;SDS011;8249;48.708;9.030;2023-07-24T12:27:49;1999.90;;;999.90;;
16282;SDS011;8249;48.708;9.030;2023-07-24T12:30:16;1999.90;;;999.90;;
16282;SDS011;8249;48.708;9.030;2023-07-24T12:32:43;1999.90;;;999.90;;
16282;SDS011;8249;48.708;9.030;2023-07-24T12:35:10;1999.90;;;999.90;;
16282;SDS011;8249;48.708;9.030;2023-07-24T12:37:37;1999.90;;;999.90;;
16282;SDS011;8249;48.708;9.030;2023-07-24T12:40:07;1999.90;;;999.90;;
16282;SDS011;8249;48.708;9.030;2023-07-24T12:42:35;1999.90;;;999.90;;
16282;SDS011;8249;48.708;9.030;2023-07-24T12:45:02;1999.90;;;999.90;;
16282;SDS011;8249;48.708;9.030;2023-07-24T12:47:29;1999.90;;;999.90;;
16282;SDS011;8249;48.708;9.030;2023-07-24T12:49:57;1999.90;;;999.90;;
16282;SDS011;8249;48.708;9.030;2023-07-24T12:52:24;1999.90;;;999.90;;
16282;SDS011;8249;48.708;9.030;2023-07-24T12:54:51;1999.90;;;999.90;;
16282;SDS011;8249;48.708;9.030;2023-07-24T12:57:19;1999.90;;;999.90;;
16282;SDS011;8249;48.708;9.030;2023-07-24T12:59:46;1999.90;;;999.90;;
16282;SDS011;8249;48.708;9.030;2023-07-24T13:02:13;1999.90;;;999.90;;
16282;SDS011;8249;48.708;9.030;2023-07-24T13:04:40;1999.90;;;999.90;;
16282;SDS011;8249;48.708;9.030;2023-07-24T13:07:08;1999.90;;;999.90;;
16282;SDS011;8249;48.708;9.030;2023-07-24T13:09:35;1999.90;;;999.90;;
16282;SDS011;8249;48.708;9.030;2023-07-24T13:12:02;1999.90;;;999.90;;
16282;SDS011;8249;48.708;9.030;2023-07-24T13:14:30;1999.90;;;999.90;;
16282;SDS011;8249;48.708;9.030;2023-07-24T13:16:57;1999.90;;;999.90;;
16282;SDS011;8249;48.708;9.030;2023-07-24T13:19:24;1999.90;;;999.90;;
16282;SDS011;8249;48.708;9.030;2023-07-24T13:21:51;1999.90;;;999.90;;
16282;SDS011;8249;48.708;9.030;2023-07-24T13:24:18;1999.90;;;999.90;;
16282;SDS011;8249;48.708;9.030;2023-07-24T13:26:45;1999.90;;;999.90;;
16282;SDS011;8249;48.708;9.030;2023-07-24T13:29:12;1999.90;;;999.90;;
16282;SDS011;8249;48.708;9.030;2023-07-24T13:31:40;1999.90;;;999.90;;
16282;SDS011;8249;48.708;9.030;2023-07-24T13:34:07;1999.90;;;999.90;;
16282;SDS011;8249;48.708;9.030;2023-07-24T13:36:34;1999.90;;;999.90;;
16282;SDS011;8249;48.708;9.030;2023-07-24T13:39:01;1999.90;;;999.90;;
16282;SDS011;8249;48.708;9.030;2023-07-24T13:41:28;1999.90;;;999.90;;
16282;SDS011;8249;48.708;9.030;2023-07-24T13:43:55;1999.90;;;999.90;;
16282;SDS011;8249;48.708;9.030;2023-07-24T13:46:21;1999.90;;;999.90;;
16282;SDS011;8249;48.708;9.030;2023-07-24T13:48:50;1999.90;;;999.90;;
16282;SDS011;8249;48.708;9.030;2023-07-24T13:51:16;1999.90;;;999.90;;
16282;SDS011;8249;48.708;9.030;2023-07-24T13:53:43;1999.90;;;999.90;;
16282;SDS011;8249;48.708;9.030;2023-07-24T13:56:12;1999.90;;;999.90;;
16282;SDS011;8249;48.708;9.030;2023-07-24T13:58:39;1999.90;;;999.90;;
16282;SDS011;8249;48.708;9.030;2023-07-24T14:01:06;1999.90;;;999.90;;
16282;SDS011;8249;48.708;9.030;2023-07-24T14:03:33;1999.90;;;999.90;;
16282;SDS011;8249;48.708;9.030;2023-07-24T14:06:01;1999.90;;;999.90;;
16282;SDS011;8249;48.708;9.030;2023-07-24T14:08:28;1999.90;;;999.90;;
16282;SDS011;8249;48.708;9.030;2023-07-24T14:10:55;1999.90;;;999.90;;